Sammy Cenac — WDH7565 — position and weather

sailwx.info

Track history (hours):
 
Tides and Currents Weather Stations Pressure Air Temp Water Temp Dewpoint Dewpoint Depression Visibility Wind Speed Wind Dir Waves Ship Positions

Sammy Cenac

Owner: Cenac Marine Services, Houma, LA. More information available from US FCC via Universal Licensing System and Coast Guard Vessel Documentation Center.

Last reported at 2017-Dec-10 14:25 UTC. Time now 2017-Dec-13 20:46 UTC.
Position N 28°21' W 096°37'.

Length 22 m; draft 2.4 m.

Type: Tug. MMSI: 367649360.

Date/timePositionNaut miles runAvg speedWind from/ knotsBaromVisibWave heightAir tempDewpointWater temp
2017-Dec-10 14:25N 28°21' W 096°37'2 5.1
2017-Dec-10 13:58N 28°19' W 096°39'3 5.8
2017-Dec-10 13:29N 28°18' W 096°42'3 6.1
2017-Dec-10 13:00N 28°16' W 096°44'3 5.7
2017-Dec-10 12:29N 28°14' W 096°47'2 4.8
2017-Dec-10 11:59N 28°13' W 096°49'2 4.6
2017-Dec-10 11:27N 28°11' W 096°51'2 4.7
2017-Dec-10 11:00N 28°10' W 096°53'2 4.7
2017-Dec-10 10:29N 28°08' W 096°55'2 4.7
2017-Dec-10 09:58N 28°06' W 096°57'3 5.5
2017-Dec-10 09:30N 28°04' W 096°58'3 5.6
2017-Dec-10 09:00N 28°01' W 097°00'3 5.8
2017-Dec-10 08:29N 27°59' W 097°02'3 5.5
2017-Dec-10 07:59N 27°57' W 097°04'3 6.1
2017-Dec-10 07:30N 27°54' W 097°03'1 2.4
2017-Dec-10 07:00N 27°53' W 097°03'0 0.0
2017-Dec-10 06:29N 27°53' W 097°03'0 0.0
2017-Dec-10 05:59N 27°53' W 097°03'0 0.0
2017-Dec-10 05:30N 27°53' W 097°03'0 0.0
2017-Dec-10 05:00N 27°53' W 097°03'0 0.0
2017-Dec-10 04:30N 27°53' W 097°03'0 0.4
2017-Dec-10 03:59N 27°52' W 097°03'2 4.4
2017-Dec-10 03:29N 27°51' W 097°04'3 5.4
2017-Dec-10 02:59N 27°50' W 097°07'3 6.5
2017-Dec-10 02:30N 27°49' W 097°11'3 6.8
2017-Dec-10 02:00N 27°49' W 097°14'3 6.9
2017-Dec-10 01:30N 27°49' W 097°18'3 6.9
2017-Dec-10 00:59N 27°49' W 097°22'3 5.4
2017-Dec-10 00:29N 27°49' W 097°25'2 3.8
2017-Dec-09 23:59N 27°49' W 097°27'4 0.2
2017-Dec-09 04:01N 27°51' W 097°31'0 0.0
2017-Dec-09 03:58N 27°51' W 097°31'0 0.0
2017-Dec-09 03:28N 27°51' W 097°31'0 0.0
2017-Dec-09 02:58N 27°51' W 097°31'5 0.4
2017-Dec-08 15:38N 27°49' W 097°26'0 0.2
2017-Dec-08 15:29N 27°49' W 097°26'1 0.1
2017-Dec-08 00:21N 27°49' W 097°27'1 0.9
2017-Dec-07 23:08N 27°49' W 097°26'1 5.4
2017-Dec-07 23:00N 27°49' W 097°27'1 2.4
2017-Dec-07 22:24N 27°49' W 097°29'2 4.3
2017-Dec-07 22:00N 27°49' W 097°27'0 0.5
2017-Dec-07 21:07N 27°49' W 097°26'1 4.4
2017-Dec-07 20:57N 27°49' W 097°27'1 0.5
2017-Dec-07 18:08N 27°49' W 097°29'0 0.0
2017-Dec-07 17:59N 27°49' W 097°29'0 0.0
2017-Dec-07 11:35N 27°49' W 097°29'0 0.0
2017-Dec-07 11:11N 27°49' W 097°29'0 0.0
2017-Dec-07 10:56N 27°49' W 097°29'0 0.0
2017-Dec-07 10:26N 27°49' W 097°29'0 0.0
2017-Dec-07 07:44N 27°49' W 097°29'0 0.0
2017-Dec-07 07:29N 27°49' W 097°29'0 0.0
2017-Dec-07 06:02N 27°49' W 097°29'0 0.0
2017-Dec-07 05:56N 27°49' W 097°29'0 0.0
2017-Dec-07 05:26N 27°49' W 097°29'0 0.0
2017-Dec-07 01:56N 27°49' W 097°29'0 0.0
2017-Dec-07 01:26N 27°49' W 097°29'0 0.0
2017-Dec-07 00:53N 27°49' W 097°29'0 0.0
2017-Dec-07 00:11N 27°49' W 097°29'0 0.0
2017-Dec-06 23:59N 27°49' W 097°29'  
2017-Dec-04 10:25N 27°53' W 097°03'0 0.0
2017-Dec-04 09:58N 27°53' W 097°03'0 0.0
2017-Dec-04 09:28N 27°53' W 097°03'0 0.0
2017-Dec-04 08:58N 27°53' W 097°03'0 0.0
2017-Dec-04 08:28N 27°53' W 097°03'0 0.0
2017-Dec-04 07:58N 27°53' W 097°03'0 0.0
2017-Dec-04 07:28N 27°53' W 097°03'0 0.0
2017-Dec-04 07:01N 27°53' W 097°03'0 0.0
2017-Dec-04 06:25N 27°53' W 097°03'0 0.0
2017-Dec-04 05:57N 27°53' W 097°03'0 0.0
2017-Dec-04 05:27N 27°53' W 097°03'0 0.0
2017-Dec-04 04:55N 27°53' W 097°03'0 0.0
2017-Dec-04 04:28N 27°53' W 097°03'0 0.0
2017-Dec-04 03:58N 27°53' W 097°03'0 0.0
2017-Dec-04 03:30N 27°53' W 097°03'0 0.0
2017-Dec-04 03:00N 27°53' W 097°03'0 0.0
2017-Dec-04 02:30N 27°53' W 097°03'0 0.0
2017-Dec-04 02:00N 27°53' W 097°03'0 0.0
2017-Dec-04 01:28N 27°53' W 097°03'0 0.0
2017-Dec-04 01:00N 27°53' W 097°03'0 0.0
2017-Dec-04 00:30N 27°53' W 097°03'0 0.0
2017-Dec-03 23:57N 27°53' W 097°03'0 0.0
2017-Dec-03 23:31N 27°53' W 097°03'0 0.0
2017-Dec-03 23:00N 27°53' W 097°03'0 0.0
2017-Dec-03 22:30N 27°53' W 097°03'0 0.0
2017-Dec-03 22:00N 27°53' W 097°03'0 0.0
2017-Dec-03 21:30N 27°53' W 097°03'0 0.0
2017-Dec-03 21:01N 27°53' W 097°03'0 0.0
2017-Dec-03 20:30N 27°53' W 097°03'0 0.0
2017-Dec-03 20:00N 27°53' W 097°03'0 0.0
2017-Dec-03 19:27N 27°53' W 097°03'0 0.0
2017-Dec-03 19:00N 27°53' W 097°03'0 0.0
2017-Dec-03 18:30N 27°53' W 097°03'0 0.0
2017-Dec-03 18:00N 27°53' W 097°03'0 0.0
2017-Dec-03 17:30N 27°53' W 097°03'0 0.0
2017-Dec-03 17:00N 27°53' W 097°03'0 0.0
2017-Dec-03 16:30N 27°53' W 097°03'0 0.0
2017-Dec-03 16:00N 27°53' W 097°03'0 0.0
2017-Dec-03 15:30N 27°53' W 097°03'0 0.0
2017-Dec-03 15:01N 27°53' W 097°03'0 0.0
2017-Dec-03 14:30N 27°53' W 097°03'0 0.0
2017-Dec-03 13:57N 27°53' W 097°03'0 0.0
2017-Dec-03 13:30N 27°53' W 097°03'0 0.0
2017-Dec-03 13:00N 27°53' W 097°03'0 0.0
2017-Dec-03 12:30N 27°53' W 097°03'0 0.0
2017-Dec-03 12:00N 27°53' W 097°03'0 0.0
2017-Dec-03 11:30N 27°53' W 097°03'0 0.0
2017-Dec-03 11:00N 27°53' W 097°03'0 0.0
2017-Dec-03 10:30N 27°53' W 097°03'0 0.0
2017-Dec-03 10:00N 27°53' W 097°03'0 0.0
2017-Dec-03 09:30N 27°53' W 097°03'0 0.0
2017-Dec-03 09:00N 27°53' W 097°03'0 0.0
2017-Dec-03 08:30N 27°53' W 097°03'0 0.0
2017-Dec-03 08:00N 27°53' W 097°03'0 0.0
2017-Dec-03 07:27N 27°53' W 097°03'0 0.0
2017-Dec-03 07:00N 27°53' W 097°03'0 0.0
2017-Dec-03 06:30N 27°53' W 097°03'0 0.0
2017-Dec-03 06:00N 27°53' W 097°03'0 0.0
2017-Dec-03 05:30N 27°53' W 097°03'0 0.0
2017-Dec-03 05:00N 27°53' W 097°03'0 0.0
2017-Dec-03 04:30N 27°53' W 097°03'0 0.0
2017-Dec-03 04:00N 27°53' W 097°03'0 0.0
2017-Dec-03 03:30N 27°53' W 097°03'0 0.0
2017-Dec-03 03:00N 27°53' W 097°03'0 0.0
2017-Dec-03 02:30N 27°53' W 097°03'0 0.0
2017-Dec-03 02:00N 27°53' W 097°03'0 0.0
2017-Dec-03 01:29N 27°53' W 097°03'0 0.0
2017-Dec-03 00:59N 27°53' W 097°03'0 0.0
2017-Dec-03 00:29N 27°53' W 097°03'0 0.0
2017-Dec-02 23:59N 27°53' W 097°03'0 0.0
2017-Dec-02 23:30N 27°53' W 097°03'0 0.0
2017-Dec-02 22:59N 27°53' W 097°03'0 0.0
2017-Dec-02 22:30N 27°53' W 097°03'0 0.0
2017-Dec-02 22:00N 27°53' W 097°03'0 0.0
2017-Dec-02 21:30N 27°53' W 097°03'0 0.0
2017-Dec-02 20:59N 27°53' W 097°03'0 0.0
2017-Dec-02 20:29N 27°53' W 097°03'0 0.0
2017-Dec-02 20:01N 27°53' W 097°03'0 0.0
2017-Dec-02 19:30N 27°53' W 097°03'0 0.0
2017-Dec-02 18:59N 27°53' W 097°03'0 0.0
2017-Dec-02 18:29N 27°53' W 097°03'0 0.0
2017-Dec-02 18:00N 27°53' W 097°03'0 0.0
2017-Dec-02 17:30N 27°53' W 097°03'0 0.0
2017-Dec-02 16:59N 27°53' W 097°03'0 0.0
2017-Dec-02 16:29N 27°53' W 097°03'0 0.0
2017-Dec-02 15:59N 27°53' W 097°03'0 0.7
2017-Dec-02 15:31N 27°53' W 097°03'0 0.6
2017-Dec-02 15:00N 27°53' W 097°03'1 1.5
2017-Dec-02 14:30N 27°52' W 097°03'3 5.6
2017-Dec-02 14:00N 27°50' W 097°06'4 8.6
2017-Dec-02 13:29N 27°49' W 097°11'4 7.6
2017-Dec-02 13:00N 27°49' W 097°15'0 0.5
2017-Dec-02 12:29N 27°49' W 097°15'3 6.6
2017-Dec-02 11:59N 27°49' W 097°11'3 5.9
2017-Dec-02 11:30N 27°50' W 097°08'2 4.6
2017-Dec-02 11:00N 27°50' W 097°05'2 4.1
2017-Dec-02 10:29N 27°51' W 097°03'2 4.1
2017-Dec-02 09:59N 27°53' W 097°03'3 6.1
2017-Dec-02 09:30N 27°56' W 097°04'3 5.5
2017-Dec-02 08:59N 27°59' W 097°03'3 5.9
2017-Dec-02 08:30N 28°01' W 097°01'3 5.7
2017-Dec-02 07:59N 28°03' W 096°59'3 5.5
2017-Dec-02 07:30N 28°06' W 096°57'2 3.9
2017-Dec-02 06:59N 28°07' W 096°55'2 4.8
2017-Dec-02 06:29N 28°09' W 096°54'2 4.9
2017-Dec-02 05:59N 28°11' W 096°52'2 4.8
2017-Dec-02 05:30N 28°12' W 096°50'3 4.9
2017-Dec-02 04:58N 28°14' W 096°47'3 5.8
2017-Dec-02 04:29N 28°16' W 096°45'3 5.9
2017-Dec-02 04:00N 28°17' W 096°42'8 5.3
2017-Dec-02 02:31N 28°22' W 096°35'0 5.2
2017-Dec-02 02:29N 28°22' W 096°35'3 5.3
2017-Dec-02 01:51N 28°23' W 096°31'7 5.4
2017-Dec-02 00:29N 28°27' W 096°24'3 5.6
2017-Dec-01 23:59N 28°29' W 096°22'3 5.9
2017-Dec-01 23:30N 28°30' W 096°19'3 5.7
2017-Dec-01 23:00N 28°31' W 096°16'3 5.7
2017-Dec-01 22:24N 28°33' W 096°13'3 5.5
2017-Dec-01 21:53N 28°35' W 096°11'2 4.2
2017-Dec-01 21:27N 28°37' W 096°10'0 1.0
2017-Dec-01 21:00N 28°37' W 096°09'2 3.6
2017-Dec-01 20:29N 28°37' W 096°07'2 4.3
2017-Dec-01 19:59N 28°38' W 096°05'2 4.7
2017-Dec-01 19:30N 28°40' W 096°03'3 3.5
2017-Dec-01 18:40N 28°40' W 095°60'  
Track history (hours):
 
Tides and Currents Weather Stations Pressure Air Temp Water Temp Dewpoint Dewpoint Depression Visibility Wind Speed Wind Dir Waves Ship Positions

Sammy Cenac

Owner: Cenac Marine Services, Houma, LA. More information available from US FCC via Universal Licensing System and Coast Guard Vessel Documentation Center.

Last reported at 2017-Dec-10 14:25 UTC. Time now 2017-Dec-13 20:46 UTC.
Position N 28°21' W 096°37'.

Length 22 m; draft 2.4 m.

Type: Tug. MMSI: 367649360.

Date/timePositionNaut miles runAvg speedWind from/ knotsBaromVisibWave heightAir tempDewpointWater temp
2017-Dec-10 14:25N 28°21' W 096°37'2 5.1
2017-Dec-10 13:58N 28°19' W 096°39'3 5.8
2017-Dec-10 13:29N 28°18' W 096°42'3 6.1
2017-Dec-10 13:00N 28°16' W 096°44'3 5.7
2017-Dec-10 12:29N 28°14' W 096°47'2 4.8
2017-Dec-10 11:59N 28°13' W 096°49'2 4.6
2017-Dec-10 11:27N 28°11' W 096°51'2 4.7
2017-Dec-10 11:00N 28°10' W 096°53'2 4.7
2017-Dec-10 10:29N 28°08' W 096°55'2 4.7
2017-Dec-10 09:58N 28°06' W 096°57'3 5.5
2017-Dec-10 09:30N 28°04' W 096°58'3 5.6
2017-Dec-10 09:00N 28°01' W 097°00'3 5.8
2017-Dec-10 08:29N 27°59' W 097°02'3 5.5
2017-Dec-10 07:59N 27°57' W 097°04'3 6.1
2017-Dec-10 07:30N 27°54' W 097°03'1 2.4
2017-Dec-10 07:00N 27°53' W 097°03'0 0.0
2017-Dec-10 06:29N 27°53' W 097°03'0 0.0
2017-Dec-10 05:59N 27°53' W 097°03'0 0.0
2017-Dec-10 05:30N 27°53' W 097°03'0 0.0
2017-Dec-10 05:00N 27°53' W 097°03'0 0.0
2017-Dec-10 04:30N 27°53' W 097°03'0 0.4
2017-Dec-10 03:59N 27°52' W 097°03'2 4.4
2017-Dec-10 03:29N 27°51' W 097°04'3 5.4
2017-Dec-10 02:59N 27°50' W 097°07'3 6.5
2017-Dec-10 02:30N 27°49' W 097°11'3 6.8
2017-Dec-10 02:00N 27°49' W 097°14'3 6.9
2017-Dec-10 01:30N 27°49' W 097°18'3 6.9
2017-Dec-10 00:59N 27°49' W 097°22'3 5.4
2017-Dec-10 00:29N 27°49' W 097°25'2 3.8
2017-Dec-09 23:59N 27°49' W 097°27'4 0.2
2017-Dec-09 04:01N 27°51' W 097°31'0 0.0
2017-Dec-09 03:58N 27°51' W 097°31'0 0.0
2017-Dec-09 03:28N 27°51' W 097°31'0 0.0
2017-Dec-09 02:58N 27°51' W 097°31'5 0.4
2017-Dec-08 15:38N 27°49' W 097°26'0 0.2
2017-Dec-08 15:29N 27°49' W 097°26'1 0.1
2017-Dec-08 00:21N 27°49' W 097°27'1 0.9
2017-Dec-07 23:08N 27°49' W 097°26'1 5.4
2017-Dec-07 23:00N 27°49' W 097°27'1 2.4
2017-Dec-07 22:24N 27°49' W 097°29'2 4.3
2017-Dec-07 22:00N 27°49' W 097°27'0 0.5
2017-Dec-07 21:07N 27°49' W 097°26'1 4.4
2017-Dec-07 20:57N 27°49' W 097°27'1 0.5
2017-Dec-07 18:08N 27°49' W 097°29'0 0.0
2017-Dec-07 17:59N 27°49' W 097°29'0 0.0
2017-Dec-07 11:35N 27°49' W 097°29'0 0.0
2017-Dec-07 11:11N 27°49' W 097°29'0 0.0
2017-Dec-07 10:56N 27°49' W 097°29'0 0.0
2017-Dec-07 10:26N 27°49' W 097°29'0 0.0
2017-Dec-07 07:44N 27°49' W 097°29'0 0.0
2017-Dec-07 07:29N 27°49' W 097°29'0 0.0
2017-Dec-07 06:02N 27°49' W 097°29'0 0.0
2017-Dec-07 05:56N 27°49' W 097°29'0 0.0
2017-Dec-07 05:26N 27°49' W 097°29'0 0.0
2017-Dec-07 01:56N 27°49' W 097°29'0 0.0
2017-Dec-07 01:26N 27°49' W 097°29'0 0.0
2017-Dec-07 00:53N 27°49' W 097°29'0 0.0
2017-Dec-07 00:11N 27°49' W 097°29'0 0.0
2017-Dec-06 23:59N 27°49' W 097°29'  
2017-Dec-04 10:25N 27°53' W 097°03'0 0.0
2017-Dec-04 09:58N 27°53' W 097°03'0 0.0
2017-Dec-04 09:28N 27°53' W 097°03'0 0.0
2017-Dec-04 08:58N 27°53' W 097°03'0 0.0
2017-Dec-04 08:28N 27°53' W 097°03'0 0.0
2017-Dec-04 07:58N 27°53' W 097°03'0 0.0
2017-Dec-04 07:28N 27°53' W 097°03'0 0.0
2017-Dec-04 07:01N 27°53' W 097°03'0 0.0
2017-Dec-04 06:25N 27°53' W 097°03'0 0.0
2017-Dec-04 05:57N 27°53' W 097°03'0 0.0
2017-Dec-04 05:27N 27°53' W 097°03'0 0.0
2017-Dec-04 04:55N 27°53' W 097°03'0 0.0
2017-Dec-04 04:28N 27°53' W 097°03'0 0.0
2017-Dec-04 03:58N 27°53' W 097°03'0 0.0
2017-Dec-04 03:30N 27°53' W 097°03'0 0.0
2017-Dec-04 03:00N 27°53' W 097°03'0 0.0
2017-Dec-04 02:30N 27°53' W 097°03'0 0.0
2017-Dec-04 02:00N 27°53' W 097°03'0 0.0
2017-Dec-04 01:28N 27°53' W 097°03'0 0.0
2017-Dec-04 01:00N 27°53' W 097°03'0 0.0
2017-Dec-04 00:30N 27°53' W 097°03'0 0.0
2017-Dec-03 23:57N 27°53' W 097°03'0 0.0
2017-Dec-03 23:31N 27°53' W 097°03'0 0.0
2017-Dec-03 23:00N 27°53' W 097°03'0 0.0
2017-Dec-03 22:30N 27°53' W 097°03'0 0.0
2017-Dec-03 22:00N 27°53' W 097°03'0 0.0
2017-Dec-03 21:30N 27°53' W 097°03'0 0.0
2017-Dec-03 21:01N 27°53' W 097°03'0 0.0
2017-Dec-03 20:30N 27°53' W 097°03'0 0.0
2017-Dec-03 20:00N 27°53' W 097°03'0 0.0
2017-Dec-03 19:27N 27°53' W 097°03'0 0.0
2017-Dec-03 19:00N 27°53' W 097°03'0 0.0
2017-Dec-03 18:30N 27°53' W 097°03'0 0.0
2017-Dec-03 18:00N 27°53' W 097°03'0 0.0
2017-Dec-03 17:30N 27°53' W 097°03'0 0.0
2017-Dec-03 17:00N 27°53' W 097°03'0 0.0
2017-Dec-03 16:30N 27°53' W 097°03'0 0.0
2017-Dec-03 16:00N 27°53' W 097°03'0 0.0
2017-Dec-03 15:30N 27°53' W 097°03'0 0.0
2017-Dec-03 15:01N 27°53' W 097°03'0 0.0
2017-Dec-03 14:30N 27°53' W 097°03'0 0.0
2017-Dec-03 13:57N 27°53' W 097°03'0 0.0
2017-Dec-03 13:30N 27°53' W 097°03'0 0.0
2017-Dec-03 13:00N 27°53' W 097°03'0 0.0
2017-Dec-03 12:30N 27°53' W 097°03'0 0.0
2017-Dec-03 12:00N 27°53' W 097°03'0 0.0
2017-Dec-03 11:30N 27°53' W 097°03'0 0.0
2017-Dec-03 11:00N 27°53' W 097°03'0 0.0
2017-Dec-03 10:30N 27°53' W 097°03'0 0.0
2017-Dec-03 10:00N 27°53' W 097°03'0 0.0
2017-Dec-03 09:30N 27°53' W 097°03'0 0.0
2017-Dec-03 09:00N 27°53' W 097°03'0 0.0
2017-Dec-03 08:30N 27°53' W 097°03'0 0.0
2017-Dec-03 08:00N 27°53' W 097°03'0 0.0
2017-Dec-03 07:27N 27°53' W 097°03'0 0.0
2017-Dec-03 07:00N 27°53' W 097°03'0 0.0
2017-Dec-03 06:30N 27°53' W 097°03'0 0.0
2017-Dec-03 06:00N 27°53' W 097°03'0 0.0
2017-Dec-03 05:30N 27°53' W 097°03'0 0.0
2017-Dec-03 05:00N 27°53' W 097°03'0 0.0
2017-Dec-03 04:30N 27°53' W 097°03'0 0.0
2017-Dec-03 04:00N 27°53' W 097°03'0 0.0
2017-Dec-03 03:30N 27°53' W 097°03'0 0.0
2017-Dec-03 03:00N 27°53' W 097°03'0 0.0
2017-Dec-03 02:30N 27°53' W 097°03'0 0.0
2017-Dec-03 02:00N 27°53' W 097°03'0 0.0
2017-Dec-03 01:29N 27°53' W 097°03'0 0.0
2017-Dec-03 00:59N 27°53' W 097°03'0 0.0
2017-Dec-03 00:29N 27°53' W 097°03'0 0.0
2017-Dec-02 23:59N 27°53' W 097°03'0 0.0
2017-Dec-02 23:30N 27°53' W 097°03'0 0.0
2017-Dec-02 22:59N 27°53' W 097°03'0 0.0
2017-Dec-02 22:30N 27°53' W 097°03'0 0.0
2017-Dec-02 22:00N 27°53' W 097°03'0 0.0
2017-Dec-02 21:30N 27°53' W 097°03'0 0.0
2017-Dec-02 20:59N 27°53' W 097°03'0 0.0
2017-Dec-02 20:29N 27°53' W 097°03'0 0.0
2017-Dec-02 20:01N 27°53' W 097°03'0 0.0
2017-Dec-02 19:30N 27°53' W 097°03'0 0.0
2017-Dec-02 18:59N 27°53' W 097°03'0 0.0
2017-Dec-02 18:29N 27°53' W 097°03'0 0.0
2017-Dec-02 18:00N 27°53' W 097°03'0 0.0
2017-Dec-02 17:30N 27°53' W 097°03'0 0.0
2017-Dec-02 16:59N 27°53' W 097°03'0 0.0
2017-Dec-02 16:29N 27°53' W 097°03'0 0.0
2017-Dec-02 15:59N 27°53' W 097°03'0 0.7
2017-Dec-02 15:31N 27°53' W 097°03'0 0.6
2017-Dec-02 15:00N 27°53' W 097°03'1 1.5
2017-Dec-02 14:30N 27°52' W 097°03'3 5.6
2017-Dec-02 14:00N 27°50' W 097°06'4 8.6
2017-Dec-02 13:29N 27°49' W 097°11'4 7.6
2017-Dec-02 13:00N 27°49' W 097°15'0 0.5
2017-Dec-02 12:29N 27°49' W 097°15'3 6.6
2017-Dec-02 11:59N 27°49' W 097°11'3 5.9
2017-Dec-02 11:30N 27°50' W 097°08'2 4.6
2017-Dec-02 11:00N 27°50' W 097°05'2 4.1
2017-Dec-02 10:29N 27°51' W 097°03'2 4.1
2017-Dec-02 09:59N 27°53' W 097°03'3 6.1
2017-Dec-02 09:30N 27°56' W 097°04'3 5.5
2017-Dec-02 08:59N 27°59' W 097°03'3 5.9
2017-Dec-02 08:30N 28°01' W 097°01'3 5.7
2017-Dec-02 07:59N 28°03' W 096°59'3 5.5
2017-Dec-02 07:30N 28°06' W 096°57'2 3.9
2017-Dec-02 06:59N 28°07' W 096°55'2 4.8
2017-Dec-02 06:29N 28°09' W 096°54'2 4.9
2017-Dec-02 05:59N 28°11' W 096°52'2 4.8
2017-Dec-02 05:30N 28°12' W 096°50'3 4.9
2017-Dec-02 04:58N 28°14' W 096°47'3 5.8
2017-Dec-02 04:29N 28°16' W 096°45'3 5.9
2017-Dec-02 04:00N 28°17' W 096°42'8 5.3
2017-Dec-02 02:31N 28°22' W 096°35'0 5.2
2017-Dec-02 02:29N 28°22' W 096°35'3 5.3
2017-Dec-02 01:51N 28°23' W 096°31'7 5.4
2017-Dec-02 00:29N 28°27' W 096°24'3 5.6
2017-Dec-01 23:59N 28°29' W 096°22'3 5.9
2017-Dec-01 23:30N 28°30' W 096°19'3 5.7
2017-Dec-01 23:00N 28°31' W 096°16'3 5.7
2017-Dec-01 22:24N 28°33' W 096°13'3 5.5
2017-Dec-01 21:53N 28°35' W 096°11'2 4.2
2017-Dec-01 21:27N 28°37' W 096°10'0 1.0
2017-Dec-01 21:00N 28°37' W 096°09'2 3.6
2017-Dec-01 20:29N 28°37' W 096°07'2 4.3
2017-Dec-01 19:59N 28°38' W 096°05'2 4.7
2017-Dec-01 19:30N 28°40' W 096°03'3 3.5
2017-Dec-01 18:40N 28°40' W 095°60'  

Dump ship's entire track history